sensor_id;sensor_type;location;lat;lon;timestamp;P1;durP1;ratioP1;P2;durP2;ratioP2
78222;SDS011;67497;53.058;21.618;2023-03-04T00:00:53;29.25;;;10.02;;
78222;SDS011;67497;53.058;21.618;2023-03-04T00:02:54;24.17;;;9.68;;
78222;SDS011;67497;53.058;21.618;2023-03-04T00:04:54;32.85;;;10.82;;
78222;SDS011;67497;53.058;21.618;2023-03-04T00:06:54;32.15;;;9.55;;
78222;SDS011;67497;53.058;21.618;2023-03-04T00:08:55;27.52;;;9.55;;
78222;SDS011;67497;53.058;21.618;2023-03-04T00:10:56;23.77;;;9.27;;
78222;SDS011;67497;53.058;21.618;2023-03-04T00:12:56;25.50;;;9.77;;
78222;SDS011;67497;53.058;21.618;2023-03-04T00:14:57;41.00;;;11.90;;
78222;SDS011;67497;53.058;21.618;2023-03-04T00:16:57;32.25;;;9.57;;
78222;SDS011;67497;53.058;21.618;2023-03-04T00:18:58;27.63;;;9.38;;
78222;SDS011;67497;53.058;21.618;2023-03-04T00:20:58;30.90;;;9.30;;
78222;SDS011;67497;53.058;21.618;2023-03-04T00:22:59;29.58;;;9.20;;
78222;SDS011;67497;53.058;21.618;2023-03-04T00:24:59;23.25;;;9.50;;
78222;SDS011;67497;53.058;21.618;2023-03-04T00:27:00;28.05;;;9.52;;
78222;SDS011;67497;53.058;21.618;2023-03-04T00:29:00;28.25;;;9.77;;
78222;SDS011;67497;53.058;21.618;2023-03-04T00:31:01;24.83;;;8.73;;
78222;SDS011;67497;53.058;21.618;2023-03-04T00:33:01;27.02;;;9.10;;
78222;SDS011;67497;53.058;21.618;2023-03-04T00:35:02;28.13;;;9.43;;
78222;SDS011;67497;53.058;21.618;2023-03-04T00:37:02;25.77;;;9.20;;
78222;SDS011;67497;53.058;21.618;2023-03-04T00:39:03;33.17;;;9.60;;
78222;SDS011;67497;53.058;21.618;2023-03-04T00:41:03;28.40;;;9.48;;
78222;SDS011;67497;53.058;21.618;2023-03-04T00:43:04;28.35;;;10.70;;
78222;SDS011;67497;53.058;21.618;2023-03-04T00:45:05;27.02;;;9.23;;
78222;SDS011;67497;53.058;21.618;2023-03-04T00:47:06;32.17;;;9.38;;
78222;SDS011;67497;53.058;21.618;2023-03-04T00:49:07;26.60;;;8.85;;
78222;SDS011;67497;53.058;21.618;2023-03-04T00:51:07;25.95;;;7.75;;
78222;SDS011;67497;53.058;21.618;2023-03-04T00:53:08;23.20;;;8.43;;
78222;SDS011;67497;53.058;21.618;2023-03-04T00:55:09;25.60;;;8.50;;
78222;SDS011;67497;53.058;21.618;2023-03-04T00:57:09;22.92;;;8.07;;
78222;SDS011;67497;53.058;21.618;2023-03-04T00:59:10;26.50;;;8.60;;
78222;SDS011;67497;53.058;21.618;2023-03-04T01:01:10;28.02;;;8.27;;
78222;SDS011;67497;53.058;21.618;2023-03-04T01:03:11;24.35;;;8.90;;
78222;SDS011;67497;53.058;21.618;2023-03-04T01:05:11;28.77;;;9.50;;
78222;SDS011;67497;53.058;21.618;2023-03-04T01:07:12;28.23;;;8.30;;
78222;SDS011;67497;53.058;21.618;2023-03-04T01:09:12;25.95;;;8.63;;
78222;SDS011;67497;53.058;21.618;2023-03-04T01:11:13;26.85;;;8.43;;
78222;SDS011;67497;53.058;21.618;2023-03-04T01:13:14;29.02;;;8.93;;
78222;SDS011;67497;53.058;21.618;2023-03-04T01:15:14;27.80;;;9.15;;
78222;SDS011;67497;53.058;21.618;2023-03-04T01:17:15;24.67;;;8.32;;
78222;SDS011;67497;53.058;21.618;2023-03-04T01:19:15;26.58;;;8.85;;
78222;SDS011;67497;53.058;21.618;2023-03-04T01:21:16;27.05;;;8.60;;
78222;SDS011;67497;53.058;21.618;2023-03-04T01:23:17;29.00;;;8.30;;
78222;SDS011;67497;53.058;21.618;2023-03-04T01:25:17;27.65;;;9.18;;
78222;SDS011;67497;53.058;21.618;2023-03-04T01:27:18;21.33;;;7.97;;
78222;SDS011;67497;53.058;21.618;2023-03-04T01:29:18;25.48;;;9.02;;
78222;SDS011;67497;53.058;21.618;2023-03-04T01:31:19;29.83;;;8.80;;
78222;SDS011;67497;53.058;21.618;2023-03-04T01:33:20;31.30;;;9.65;;
78222;SDS011;67497;53.058;21.618;2023-03-04T01:35:20;29.42;;;8.88;;
78222;SDS011;67497;53.058;21.618;2023-03-04T01:37:20;27.92;;;8.55;;
78222;SDS011;67497;53.058;21.618;2023-03-04T01:39:21;30.63;;;10.07;;
78222;SDS011;67497;53.058;21.618;2023-03-04T01:41:23;25.02;;;8.15;;
78222;SDS011;67497;53.058;21.618;2023-03-04T01:43:26;24.00;;;8.20;;
78222;SDS011;67497;53.058;21.618;2023-03-04T01:45:27;25.75;;;9.23;;
78222;SDS011;67497;53.058;21.618;2023-03-04T01:47:30;28.67;;;8.15;;
78222;SDS011;67497;53.058;21.618;2023-03-04T01:49:33;28.15;;;7.13;;
78222;SDS011;67497;53.058;21.618;2023-03-04T01:51:33;30.45;;;8.55;;
78222;SDS011;67497;53.058;21.618;2023-03-04T01:53:34;25.02;;;7.88;;
78222;SDS011;67497;53.058;21.618;2023-03-04T01:55:34;27.30;;;8.77;;
78222;SDS011;67497;53.058;21.618;2023-03-04T01:57:35;26.45;;;9.13;;
78222;SDS011;67497;53.058;21.618;2023-03-04T01:59:35;25.30;;;8.80;;
78222;SDS011;67497;53.058;21.618;2023-03-04T02:01:36;26.35;;;8.45;;
78222;SDS011;67497;53.058;21.618;2023-03-04T02:03:38;22.95;;;7.82;;
78222;SDS011;67497;53.058;21.618;2023-03-04T02:05:43;28.83;;;8.07;;
78222;SDS011;67497;53.058;21.618;2023-03-04T02:07:46;52.17;;;9.20;;
78222;SDS011;67497;53.058;21.618;2023-03-04T02:09:47;21.38;;;7.30;;
78222;SDS011;67497;53.058;21.618;2023-03-04T02:11:48;23.70;;;7.25;;
78222;SDS011;67497;53.058;21.618;2023-03-04T02:15:51;25.05;;;7.28;;
78222;SDS011;67497;53.058;21.618;2023-03-04T02:17:51;25.58;;;7.47;;
78222;SDS011;67497;53.058;21.618;2023-03-04T02:22:01;28.10;;;8.20;;
78222;SDS011;67497;53.058;21.618;2023-03-04T02:24:13;25.45;;;7.63;;
78222;SDS011;67497;53.058;21.618;2023-03-04T02:26:18;25.73;;;7.50;;
78222;SDS011;67497;53.058;21.618;2023-03-04T02:28:31;26.02;;;7.97;;
78222;SDS011;67497;53.058;21.618;2023-03-04T02:30:32;26.33;;;7.80;;
78222;SDS011;67497;53.058;21.618;2023-03-04T02:32:34;30.00;;;9.82;;
78222;SDS011;67497;53.058;21.618;2023-03-04T02:34:34;25.77;;;9.20;;
78222;SDS011;67497;53.058;21.618;2023-03-04T02:36:35;26.65;;;8.15;;
78222;SDS011;67497;53.058;21.618;2023-03-04T02:38:36;23.88;;;7.60;;
78222;SDS011;67497;53.058;21.618;2023-03-04T02:40:38;24.67;;;7.95;;
78222;SDS011;67497;53.058;21.618;2023-03-04T02:42:42;29.05;;;8.88;;
78222;SDS011;67497;53.058;21.618;2023-03-04T02:44:45;24.33;;;8.65;;
78222;SDS011;67497;53.058;21.618;2023-03-04T02:46:48;25.42;;;8.75;;
78222;SDS011;67497;53.058;21.618;2023-03-04T02:48:50;26.58;;;7.75;;
78222;SDS011;67497;53.058;21.618;2023-03-04T02:50:51;23.30;;;8.15;;
78222;SDS011;67497;53.058;21.618;2023-03-04T02:52:53;28.98;;;8.23;;
78222;SDS011;67497;53.058;21.618;2023-03-04T02:54:53;26.83;;;7.47;;
78222;SDS011;67497;53.058;21.618;2023-03-04T02:56:55;23.65;;;7.30;;
78222;SDS011;67497;53.058;21.618;2023-03-04T02:59:00;22.73;;;7.75;;
78222;SDS011;67497;53.058;21.618;2023-03-04T03:01:01;22.70;;;7.45;;
78222;SDS011;67497;53.058;21.618;2023-03-04T03:03:02;23.50;;;7.72;;
78222;SDS011;67497;53.058;21.618;2023-03-04T03:05:02;21.02;;;7.10;;
78222;SDS011;67497;53.058;21.618;2023-03-04T03:07:03;27.75;;;9.32;;
78222;SDS011;67497;53.058;21.618;2023-03-04T03:09:04;30.75;;;8.00;;
78222;SDS011;67497;53.058;21.618;2023-03-04T03:11:05;24.63;;;7.85;;
78222;SDS011;67497;53.058;21.618;2023-03-04T03:13:05;26.65;;;7.68;;
78222;SDS011;67497;53.058;21.618;2023-03-04T03:15:06;22.83;;;7.88;;
78222;SDS011;67497;53.058;21.618;2023-03-04T03:17:07;21.55;;;7.50;;
78222;SDS011;67497;53.058;21.618;2023-03-04T03:19:07;26.55;;;7.80;;
78222;SDS011;67497;53.058;21.618;2023-03-04T03:21:08;26.95;;;8.23;;
78222;SDS011;67497;53.058;21.618;2023-03-04T03:23:08;23.70;;;8.60;;
78222;SDS011;67497;53.058;21.618;2023-03-04T03:25:10;21.70;;;7.85;;
78222;SDS011;67497;53.058;21.618;2023-03-04T03:27:12;20.23;;;7.60;;
78222;SDS011;67497;53.058;21.618;2023-03-04T03:29:13;22.50;;;7.30;;
78222;SDS011;67497;53.058;21.618;2023-03-04T03:31:13;32.25;;;8.95;;
78222;SDS011;67497;53.058;21.618;2023-03-04T03:33:14;21.13;;;7.68;;
78222;SDS011;67497;53.058;21.618;2023-03-04T03:35:15;23.85;;;8.23;;
78222;SDS011;67497;53.058;21.618;2023-03-04T03:37:15;18.30;;;7.57;;
78222;SDS011;67497;53.058;21.618;2023-03-04T03:39:16;25.40;;;8.65;;
78222;SDS011;67497;53.058;21.618;2023-03-04T03:41:16;24.70;;;8.27;;
78222;SDS011;67497;53.058;21.618;2023-03-04T03:43:17;21.13;;;7.75;;
78222;SDS011;67497;53.058;21.618;2023-03-04T03:45:17;26.55;;;8.02;;
78222;SDS011;67497;53.058;21.618;2023-03-04T03:47:18;24.42;;;7.90;;
78222;SDS011;67497;53.058;21.618;2023-03-04T03:49:18;19.27;;;6.88;;
78222;SDS011;67497;53.058;21.618;2023-03-04T03:51:19;23.88;;;7.53;;
78222;SDS011;67497;53.058;21.618;2023-03-04T03:53:19;17.67;;;7.25;;
78222;SDS011;67497;53.058;21.618;2023-03-04T03:55:20;23.05;;;7.63;;
78222;SDS011;67497;53.058;21.618;2023-03-04T03:57:21;25.50;;;8.30;;
78222;SDS011;67497;53.058;21.618;2023-03-04T03:59:21;25.75;;;7.68;;
78222;SDS011;67497;53.058;21.618;2023-03-04T04:01:23;21.17;;;7.97;;
78222;SDS011;67497;53.058;21.618;2023-03-04T04:03:23;25.35;;;9.18;;
78222;SDS011;67497;53.058;21.618;2023-03-04T04:05:24;18.73;;;7.10;;
78222;SDS011;67497;53.058;21.618;2023-03-04T04:07:25;22.27;;;8.15;;
78222;SDS011;67497;53.058;21.618;2023-03-04T04:09:25;21.50;;;7.40;;
78222;SDS011;67497;53.058;21.618;2023-03-04T04:11:26;22.52;;;7.75;;
78222;SDS011;67497;53.058;21.618;2023-03-04T04:13:27;22.80;;;8.60;;
78222;SDS011;67497;53.058;21.618;2023-03-04T04:15:27;19.52;;;7.65;;
78222;SDS011;67497;53.058;21.618;2023-03-04T04:17:28;21.60;;;6.55;;
78222;SDS011;67497;53.058;21.618;2023-03-04T04:19:28;22.00;;;7.07;;
78222;SDS011;67497;53.058;21.618;2023-03-04T04:21:29;22.85;;;7.55;;
78222;SDS011;67497;53.058;21.618;2023-03-04T04:23:29;19.48;;;6.82;;
78222;SDS011;67497;53.058;21.618;2023-03-04T04:25:30;23.42;;;7.88;;
78222;SDS011;67497;53.058;21.618;2023-03-04T04:27:30;24.65;;;8.23;;
78222;SDS011;67497;53.058;21.618;2023-03-04T04:29:31;22.02;;;8.07;;
78222;SDS011;67497;53.058;21.618;2023-03-04T04:31:32;24.55;;;9.18;;
78222;SDS011;67497;53.058;21.618;2023-03-04T04:33:32;21.77;;;10.02;;
78222;SDS011;67497;53.058;21.618;2023-03-04T04:35:33;23.15;;;8.68;;
78222;SDS011;67497;53.058;21.618;2023-03-04T04:37:35;26.45;;;11.63;;
78222;SDS011;67497;53.058;21.618;2023-03-04T04:39:36;24.67;;;18.80;;
78222;SDS011;67497;53.058;21.618;2023-03-04T04:41:37;27.95;;;24.92;;
78222;SDS011;67497;53.058;21.618;2023-03-04T04:43:40;47.40;;;43.50;;
78222;SDS011;67497;53.058;21.618;2023-03-04T04:45:40;78.38;;;73.38;;
78222;SDS011;67497;53.058;21.618;2023-03-04T04:47:41;125.93;;;118.68;;
78222;SDS011;67497;53.058;21.618;2023-03-04T04:49:41;121.57;;;114.03;;
78222;SDS011;67497;53.058;21.618;2023-03-04T04:51:42;117.72;;;109.40;;
78222;SDS011;67497;53.058;21.618;2023-03-04T04:53:42;83.43;;;76.63;;
78222;SDS011;67497;53.058;21.618;2023-03-04T04:55:43;88.88;;;82.15;;
78222;SDS011;67497;53.058;21.618;2023-03-04T04:57:44;49.47;;;44.75;;
78222;SDS011;67497;53.058;21.618;2023-03-04T04:59:44;38.58;;;34.47;;
78222;SDS011;67497;53.058;21.618;2023-03-04T05:01:45;37.65;;;33.70;;
78222;SDS011;67497;53.058;21.618;2023-03-04T05:03:45;41.13;;;36.75;;
78222;SDS011;67497;53.058;21.618;2023-03-04T05:05:48;30.65;;;21.50;;
78222;SDS011;67497;53.058;21.618;2023-03-04T05:07:49;28.83;;;14.88;;
78222;SDS011;67497;53.058;21.618;2023-03-04T05:09:49;24.70;;;10.13;;
78222;SDS011;67497;53.058;21.618;2023-03-04T05:11:50;24.80;;;9.80;;
78222;SDS011;67497;53.058;21.618;2023-03-04T05:13:50;22.08;;;12.80;;
78222;SDS011;67497;53.058;21.618;2023-03-04T05:15:51;24.05;;;9.32;;
78222;SDS011;67497;53.058;21.618;2023-03-04T05:17:53;29.55;;;10.93;;
78222;SDS011;67497;53.058;21.618;2023-03-04T05:19:53;27.90;;;11.02;;
78222;SDS011;67497;53.058;21.618;2023-03-04T05:21:54;21.80;;;9.38;;
78222;SDS011;67497;53.058;21.618;2023-03-04T05:23:54;17.38;;;8.05;;
78222;SDS011;67497;53.058;21.618;2023-03-04T05:25:55;20.25;;;7.10;;
78222;SDS011;67497;53.058;21.618;2023-03-04T05:27:55;23.92;;;7.85;;
78222;SDS011;67497;53.058;21.618;2023-03-04T05:29:56;23.85;;;9.27;;
78222;SDS011;67497;53.058;21.618;2023-03-04T05:31:59;20.85;;;10.75;;
78222;SDS011;67497;53.058;21.618;2023-03-04T05:34:00;32.65;;;22.65;;
78222;SDS011;67497;53.058;21.618;2023-03-04T05:36:01;30.67;;;20.02;;
78222;SDS011;67497;53.058;21.618;2023-03-04T05:40:07;20.83;;;7.93;;
78222;SDS011;67497;53.058;21.618;2023-03-04T05:42:08;23.15;;;14.98;;
78222;SDS011;67497;53.058;21.618;2023-03-04T05:44:09;29.85;;;17.45;;
78222;SDS011;67497;53.058;21.618;2023-03-04T05:46:13;32.88;;;23.35;;
78222;SDS011;67497;53.058;21.618;2023-03-04T05:48:15;24.30;;;18.67;;
78222;SDS011;67497;53.058;21.618;2023-03-04T05:50:16;34.63;;;21.85;;
78222;SDS011;67497;53.058;21.618;2023-03-04T05:52:17;26.23;;;19.63;;
78222;SDS011;67497;53.058;21.618;2023-03-04T05:54:17;26.95;;;20.08;;
78222;SDS011;67497;53.058;21.618;2023-03-04T05:56:18;28.65;;;20.67;;
78222;SDS011;67497;53.058;21.618;2023-03-04T05:58:20;28.13;;;18.15;;
78222;SDS011;67497;53.058;21.618;2023-03-04T06:00:21;27.35;;;17.77;;
78222;SDS011;67497;53.058;21.618;2023-03-04T06:02:22;20.63;;;14.18;;
78222;SDS011;67497;53.058;21.618;2023-03-04T06:04:22;27.55;;;16.38;;
78222;SDS011;67497;53.058;21.618;2023-03-04T06:06:23;26.00;;;16.40;;
78222;SDS011;67497;53.058;21.618;2023-03-04T06:08:23;23.50;;;14.68;;
78222;SDS011;67497;53.058;21.618;2023-03-04T06:10:25;20.33;;;8.85;;
78222;SDS011;67497;53.058;21.618;2023-03-04T06:12:25;23.92;;;13.25;;
78222;SDS011;67497;53.058;21.618;2023-03-04T06:14:27;24.90;;;8.95;;
78222;SDS011;67497;53.058;21.618;2023-03-04T06:16:28;21.70;;;11.18;;
78222;SDS011;67497;53.058;21.618;2023-03-04T06:18:28;20.00;;;7.55;;
78222;SDS011;67497;53.058;21.618;2023-03-04T06:20:29;25.15;;;8.95;;
78222;SDS011;67497;53.058;21.618;2023-03-04T06:22:29;22.73;;;8.65;;
78222;SDS011;67497;53.058;21.618;2023-03-04T06:24:30;21.00;;;10.43;;
78222;SDS011;67497;53.058;21.618;2023-03-04T06:26:30;20.08;;;6.93;;
78222;SDS011;67497;53.058;21.618;2023-03-04T06:28:31;17.05;;;6.53;;
78222;SDS011;67497;53.058;21.618;2023-03-04T06:30:31;17.88;;;7.32;;
78222;SDS011;67497;53.058;21.618;2023-03-04T06:32:32;18.05;;;6.75;;
78222;SDS011;67497;53.058;21.618;2023-03-04T06:34:32;19.95;;;7.30;;
78222;SDS011;67497;53.058;21.618;2023-03-04T06:36:33;19.85;;;7.13;;
78222;SDS011;67497;53.058;21.618;2023-03-04T06:38:34;18.40;;;7.60;;
78222;SDS011;67497;53.058;21.618;2023-03-04T06:40:34;22.05;;;8.48;;
78222;SDS011;67497;53.058;21.618;2023-03-04T06:42:35;24.10;;;9.85;;
78222;SDS011;67497;53.058;21.618;2023-03-04T06:44:36;18.40;;;8.00;;
78222;SDS011;67497;53.058;21.618;2023-03-04T06:46:36;18.08;;;8.77;;
78222;SDS011;67497;53.058;21.618;2023-03-04T06:48:37;15.93;;;7.70;;
78222;SDS011;67497;53.058;21.618;2023-03-04T06:50:38;28.40;;;9.57;;
78222;SDS011;67497;53.058;21.618;2023-03-04T06:52:39;19.75;;;7.45;;
78222;SDS011;67497;53.058;21.618;2023-03-04T06:54:40;16.42;;;8.48;;
78222;SDS011;67497;53.058;21.618;2023-03-04T06:56:40;18.73;;;6.85;;
78222;SDS011;67497;53.058;21.618;2023-03-04T06:58:41;21.02;;;7.13;;
78222;SDS011;67497;53.058;21.618;2023-03-04T07:00:43;16.95;;;7.38;;
78222;SDS011;67497;53.058;21.618;2023-03-04T07:02:44;17.58;;;6.30;;
78222;SDS011;67497;53.058;21.618;2023-03-04T07:04:44;15.75;;;6.43;;
78222;SDS011;67497;53.058;21.618;2023-03-04T07:06:45;17.38;;;6.70;;
78222;SDS011;67497;53.058;21.618;2023-03-04T07:08:45;21.35;;;6.93;;
78222;SDS011;67497;53.058;21.618;2023-03-04T07:10:47;15.93;;;6.47;;
78222;SDS011;67497;53.058;21.618;2023-03-04T07:12:48;17.33;;;6.47;;
78222;SDS011;67497;53.058;21.618;2023-03-04T07:14:48;16.40;;;7.72;;
78222;SDS011;67497;53.058;21.618;2023-03-04T07:16:49;17.83;;;8.13;;
78222;SDS011;67497;53.058;21.618;2023-03-04T07:18:49;17.85;;;8.05;;
78222;SDS011;67497;53.058;21.618;2023-03-04T07:20:51;15.13;;;8.25;;
78222;SDS011;67497;53.058;21.618;2023-03-04T07:22:52;14.00;;;5.95;;
78222;SDS011;67497;53.058;21.618;2023-03-04T07:24:52;14.48;;;6.35;;
78222;SDS011;67497;53.058;21.618;2023-03-04T07:26:53;13.07;;;5.65;;
78222;SDS011;67497;53.058;21.618;2023-03-04T07:28:53;12.25;;;5.97;;
78222;SDS011;67497;53.058;21.618;2023-03-04T07:32:56;14.90;;;5.03;;
78222;SDS011;67497;53.058;21.618;2023-03-04T07:34:57;14.65;;;4.70;;
78222;SDS011;67497;53.058;21.618;2023-03-04T07:36:57;10.88;;;5.25;;
78222;SDS011;67497;53.058;21.618;2023-03-04T07:38:58;14.60;;;4.75;;
78222;SDS011;67497;53.058;21.618;2023-03-04T07:40:59;11.75;;;5.30;;
78222;SDS011;67497;53.058;21.618;2023-03-04T07:43:00;14.07;;;6.28;;
78222;SDS011;67497;53.058;21.618;2023-03-04T07:45:00;17.02;;;6.18;;
78222;SDS011;67497;53.058;21.618;2023-03-04T07:47:01;16.73;;;7.45;;
78222;SDS011;67497;53.058;21.618;2023-03-04T07:49:02;17.02;;;5.53;;
78222;SDS011;67497;53.058;21.618;2023-03-04T07:51:07;18.20;;;6.22;;
78222;SDS011;67497;53.058;21.618;2023-03-04T07:53:10;14.48;;;5.95;;
78222;SDS011;67497;53.058;21.618;2023-03-04T07:55:11;14.15;;;5.55;;
78222;SDS011;67497;53.058;21.618;2023-03-04T07:57:13;16.20;;;5.75;;
78222;SDS011;67497;53.058;21.618;2023-03-04T07:59:14;21.15;;;6.20;;
78222;SDS011;67497;53.058;21.618;2023-03-04T08:01:16;15.48;;;5.95;;
78222;SDS011;67497;53.058;21.618;2023-03-04T08:03:17;18.88;;;6.63;;
78222;SDS011;67497;53.058;21.618;2023-03-04T08:05:18;17.70;;;6.72;;
78222;SDS011;67497;53.058;21.618;2023-03-04T08:07:18;17.23;;;6.97;;
78222;SDS011;67497;53.058;21.618;2023-03-04T08:09:19;19.73;;;6.40;;
78222;SDS011;67497;53.058;21.618;2023-03-04T08:11:20;18.30;;;6.75;;
78222;SDS011;67497;53.058;21.618;2023-03-04T08:13:20;17.27;;;6.30;;
78222;SDS011;67497;53.058;21.618;2023-03-04T08:15:21;21.17;;;7.63;;
78222;SDS011;67497;53.058;21.618;2023-03-04T08:17:21;23.67;;;6.90;;
78222;SDS011;67497;53.058;21.618;2023-03-04T08:19:22;15.95;;;6.65;;
78222;SDS011;67497;53.058;21.618;2023-03-04T08:21:23;13.52;;;6.35;;
78222;SDS011;67497;53.058;21.618;2023-03-04T08:23:25;17.60;;;6.55;;
78222;SDS011;67497;53.058;21.618;2023-03-04T08:25:26;18.58;;;6.07;;
78222;SDS011;67497;53.058;21.618;2023-03-04T08:27:26;18.20;;;6.70;;
78222;SDS011;67497;53.058;21.618;2023-03-04T08:29:27;19.65;;;7.75;;
78222;SDS011;67497;53.058;21.618;2023-03-04T08:31:27;18.23;;;7.10;;
78222;SDS011;67497;53.058;21.618;2023-03-04T08:33:28;17.92;;;7.20;;
78222;SDS011;67497;53.058;21.618;2023-03-04T08:35:29;16.30;;;9.15;;
78222;SDS011;67497;53.058;21.618;2023-03-04T08:37:29;16.88;;;7.20;;
78222;SDS011;67497;53.058;21.618;2023-03-04T08:39:30;19.83;;;7.30;;
78222;SDS011;67497;53.058;21.618;2023-03-04T08:41:32;21.73;;;7.63;;
78222;SDS011;67497;53.058;21.618;2023-03-04T08:43:32;18.70;;;6.55;;
78222;SDS011;67497;53.058;21.618;2023-03-04T08:45:33;23.55;;;7.85;;
78222;SDS011;67497;53.058;21.618;2023-03-04T08:47:34;15.25;;;6.65;;
78222;SDS011;67497;53.058;21.618;2023-03-04T08:49:35;20.63;;;7.65;;
78222;SDS011;67497;53.058;21.618;2023-03-04T08:51:35;25.17;;;8.70;;
78222;SDS011;67497;53.058;21.618;2023-03-04T08:53:36;17.92;;;7.72;;
78222;SDS011;67497;53.058;21.618;2023-03-04T08:55:38;17.25;;;6.25;;
78222;SDS011;67497;53.058;21.618;2023-03-04T08:57:39;30.33;;;8.43;;
78222;SDS011;67497;53.058;21.618;2023-03-04T08:59:39;20.27;;;6.70;;
78222;SDS011;67497;53.058;21.618;2023-03-04T09:01:40;24.25;;;8.80;;
78222;SDS011;67497;53.058;21.618;2023-03-04T09:03:41;15.60;;;6.70;;
78222;SDS011;67497;53.058;21.618;2023-03-04T09:05:43;23.13;;;7.88;;
78222;SDS011;67497;53.058;21.618;2023-03-04T09:07:44;20.13;;;7.45;;
78222;SDS011;67497;53.058;21.618;2023-03-04T09:09:44;21.27;;;7.35;;
78222;SDS011;67497;53.058;21.618;2023-03-04T09:11:45;22.58;;;8.63;;
78222;SDS011;67497;53.058;21.618;2023-03-04T09:13:45;18.42;;;7.43;;
78222;SDS011;67497;53.058;21.618;2023-03-04T09:15:47;18.83;;;8.18;;
78222;SDS011;67497;53.058;21.618;2023-03-04T09:17:48;20.35;;;7.30;;
78222;SDS011;67497;53.058;21.618;2023-03-04T09:19:49;17.48;;;7.15;;
78222;SDS011;67497;53.058;21.618;2023-03-04T09:21:49;22.48;;;9.25;;
78222;SDS011;67497;53.058;21.618;2023-03-04T09:23:50;20.00;;;8.02;;
78222;SDS011;67497;53.058;21.618;2023-03-04T09:25:50;25.27;;;9.32;;
78222;SDS011;67497;53.058;21.618;2023-03-04T09:27:51;20.63;;;7.65;;
78222;SDS011;67497;53.058;21.618;2023-03-04T09:29:51;32.03;;;8.98;;
78222;SDS011;67497;53.058;21.618;2023-03-04T09:31:52;34.35;;;8.88;;
78222;SDS011;67497;53.058;21.618;2023-03-04T09:33:53;28.25;;;7.97;;
78222;SDS011;67497;53.058;21.618;2023-03-04T09:35:54;27.63;;;8.32;;
78222;SDS011;67497;53.058;21.618;2023-03-04T09:37:58;25.52;;;7.90;;
78222;SDS011;67497;53.058;21.618;2023-03-04T09:39:58;30.13;;;10.23;;
78222;SDS011;67497;53.058;21.618;2023-03-04T09:41:59;20.52;;;8.15;;
78222;SDS011;67497;53.058;21.618;2023-03-04T09:44:02;29.48;;;9.40;;
78222;SDS011;67497;53.058;21.618;2023-03-04T09:46:11;33.58;;;9.38;;
78222;SDS011;67497;53.058;21.618;2023-03-04T09:48:20;34.55;;;10.32;;
78222;SDS011;67497;53.058;21.618;2023-03-04T09:50:23;34.13;;;10.88;;
78222;SDS011;67497;53.058;21.618;2023-03-04T09:56:41;51.38;;;14.15;;
78222;SDS011;67497;53.058;21.618;2023-03-04T10:05:59;46.28;;;15.23;;
78222;SDS011;67497;53.058;21.618;2023-03-04T10:08:23;44.35;;;14.68;;
78222;SDS011;67497;53.058;21.618;2023-03-04T10:10:32;42.53;;;15.63;;
78222;SDS011;67497;53.058;21.618;2023-03-04T10:12:37;46.15;;;15.02;;
78222;SDS011;67497;53.058;21.618;2023-03-04T10:14:50;44.50;;;14.70;;
78222;SDS011;67497;53.058;21.618;2023-03-04T10:16:52;46.88;;;14.57;;
78222;SDS011;67497;53.058;21.618;2023-03-04T10:19:12;46.28;;;13.18;;
78222;SDS011;67497;53.058;21.618;2023-03-04T10:21:40;46.03;;;14.75;;
78222;SDS011;67497;53.058;21.618;2023-03-04T10:23:43;51.40;;;14.02;;
78222;SDS011;67497;53.058;21.618;2023-03-04T10:25:44;42.17;;;11.52;;
78222;SDS011;67497;53.058;21.618;2023-03-04T10:29:55;38.28;;;12.75;;
78222;SDS011;67497;53.058;21.618;2023-03-04T10:31:59;41.83;;;12.57;;
78222;SDS011;67497;53.058;21.618;2023-03-04T10:34:00;52.22;;;13.13;;
78222;SDS011;67497;53.058;21.618;2023-03-04T10:36:02;37.05;;;9.85;;
78222;SDS011;67497;53.058;21.618;2023-03-04T10:38:18;29.33;;;9.85;;
78222;SDS011;67497;53.058;21.618;2023-03-04T10:40:24;35.97;;;10.70;;
78222;SDS011;67497;53.058;21.618;2023-03-04T10:42:28;43.50;;;12.32;;
78222;SDS011;67497;53.058;21.618;2023-03-04T10:44:29;26.80;;;8.90;;
78222;SDS011;67497;53.058;21.618;2023-03-04T10:46:31;20.80;;;8.75;;
78222;SDS011;67497;53.058;21.618;2023-03-04T10:48:32;34.90;;;9.65;;
78222;SDS011;67497;53.058;21.618;2023-03-04T10:50:33;26.63;;;8.15;;
78222;SDS011;67497;53.058;21.618;2023-03-04T10:52:40;35.13;;;10.02;;
78222;SDS011;67497;53.058;21.618;2023-03-04T10:54:47;29.55;;;8.48;;
78222;SDS011;67497;53.058;21.618;2023-03-04T10:56:56;26.02;;;8.98;;
78222;SDS011;67497;53.058;21.618;2023-03-04T11:01:32;23.50;;;7.95;;
78222;SDS011;67497;53.058;21.618;2023-03-04T11:03:33;34.95;;;9.63;;
78222;SDS011;67497;53.058;21.618;2023-03-04T11:05:35;34.00;;;8.02;;
78222;SDS011;67497;53.058;21.618;2023-03-04T11:07:38;30.23;;;8.32;;
78222;SDS011;67497;53.058;21.618;2023-03-04T11:09:40;28.38;;;8.15;;
78222;SDS011;67497;53.058;21.618;2023-03-04T11:11:44;18.13;;;7.68;;
78222;SDS011;67497;53.058;21.618;2023-03-04T11:13:49;28.63;;;8.02;;
78222;SDS011;67497;53.058;21.618;2023-03-04T11:15:59;24.45;;;7.93;;
78222;SDS011;67497;53.058;21.618;2023-03-04T11:18:03;22.90;;;8.77;;
78222;SDS011;67497;53.058;21.618;2023-03-04T11:20:12;24.08;;;7.63;;
78222;SDS011;67497;53.058;21.618;2023-03-04T11:22:18;33.15;;;8.68;;
78222;SDS011;67497;53.058;21.618;2023-03-04T11:24:22;22.80;;;8.30;;
78222;SDS011;67497;53.058;21.618;2023-03-04T11:26:34;29.30;;;8.13;;
78222;SDS011;67497;53.058;21.618;2023-03-04T11:28:43;31.50;;;8.43;;
78222;SDS011;67497;53.058;21.618;2023-03-04T11:30:47;26.98;;;8.60;;
78222;SDS011;67497;53.058;21.618;2023-03-04T11:32:53;19.60;;;7.20;;
78222;SDS011;67497;53.058;21.618;2023-03-04T11:35:20;25.75;;;8.07;;
78222;SDS011;67497;53.058;21.618;2023-03-04T11:37:34;29.40;;;7.75;;
78222;SDS011;67497;53.058;21.618;2023-03-04T11:41:52;20.88;;;7.10;;
78222;SDS011;67497;53.058;21.618;2023-03-04T11:43:58;33.30;;;8.70;;
78222;SDS011;67497;53.058;21.618;2023-03-04T11:51:14;28.92;;;8.23;;
78222;SDS011;67497;53.058;21.618;2023-03-04T11:53:30;20.73;;;6.97;;
78222;SDS011;67497;53.058;21.618;2023-03-04T11:55:37;32.47;;;7.78;;
78222;SDS011;67497;53.058;21.618;2023-03-04T12:02:54;31.65;;;9.43;;
78222;SDS011;67497;53.058;21.618;2023-03-04T12:08:00;26.20;;;8.07;;
78222;SDS011;67497;53.058;21.618;2023-03-04T12:17:52;29.15;;;8.32;;
78222;SDS011;67497;53.058;21.618;2023-03-04T12:27:13;28.58;;;8.95;;
78222;SDS011;67497;53.058;21.618;2023-03-04T12:31:42;29.00;;;7.53;;
78222;SDS011;67497;53.058;21.618;2023-03-04T12:43:24;31.15;;;8.23;;
78222;SDS011;67497;53.058;21.618;2023-03-04T12:54:46;30.85;;;9.90;;
78222;SDS011;67497;53.058;21.618;2023-03-04T12:57:06;29.50;;;7.38;;
78222;SDS011;67497;53.058;21.618;2023-03-04T12:59:13;47.88;;;10.63;;
78222;SDS011;67497;53.058;21.618;2023-03-04T13:01:24;25.30;;;7.93;;
78222;SDS011;67497;53.058;21.618;2023-03-04T13:03:43;37.42;;;8.48;;
78222;SDS011;67497;53.058;21.618;2023-03-04T13:06:04;32.42;;;7.22;;
78222;SDS011;67497;53.058;21.618;2023-03-04T13:08:19;27.48;;;7.53;;